createdAt,value
2022-12-12T00:01:39.583Z,98995.98
2022-12-12T00:04:07.461Z,98996.42
2022-12-12T00:06:35.482Z,98993.77
2022-12-12T00:09:03.978Z,98993.56
2022-12-12T00:11:31.773Z,98992.79
2022-12-12T00:13:59.503Z,98995.77
2022-12-12T00:16:29.081Z,98989.71
2022-12-12T00:18:56.785Z,98989.44
2022-12-12T00:21:27.674Z,98983.52
2022-12-12T00:23:56.165Z,98980.75
2022-12-12T00:26:28.332Z,98973.27
2022-12-12T00:28:58.035Z,98974.04
2022-12-12T00:31:26.119Z,98977.94
2022-12-12T00:33:54.115Z,98975.59
2022-12-12T00:36:24.837Z,98978.42
2022-12-12T00:38:53.410Z,98981.43
2022-12-12T00:41:21.792Z,98985.75
2022-12-12T00:43:49.669Z,98984.16
2022-12-12T00:46:19.785Z,98981.18
2022-12-12T00:48:48.038Z,98974.52
2022-12-12T00:51:18.767Z,98974.89
2022-12-12T00:53:47.285Z,98974.39
2022-12-12T00:56:16.993Z,98976.06
2022-12-12T00:58:44.998Z,98968.38
2022-12-12T01:01:16.103Z,98966.94
2022-12-12T01:03:43.812Z,98963.14
2022-12-12T01:06:11.761Z,98963.31
2022-12-12T01:08:39.697Z,98961.83
2022-12-12T01:11:11.046Z,98957.16
2022-12-12T01:13:38.954Z,98964.34
2022-12-12T01:16:07.497Z,98958.47
2022-12-12T01:18:35.859Z,98959.05
2022-12-12T01:21:04.137Z,98953.53
2022-12-12T01:23:31.859Z,98952.16
2022-12-12T01:26:04.774Z,98945.73
2022-12-12T01:28:32.550Z,98947.98
2022-12-12T01:31:00.305Z,98944.41
2022-12-12T01:33:28.311Z,98938.10
2022-12-12T01:35:56.879Z,98939.07
2022-12-12T01:38:24.781Z,98933.49
2022-12-12T01:40:54.048Z,98937.80
2022-12-12T01:43:23.135Z,98939.23
2022-12-12T01:46:00.185Z,98935.16
2022-12-12T01:48:36.719Z,98938.77
2022-12-12T01:51:11.669Z,98935.35
2022-12-12T01:53:39.692Z,98939.00
2022-12-12T01:56:12.364Z,98939.17
2022-12-12T01:58:43.413Z,98936.65
2022-12-12T02:01:11.987Z,98937.74
2022-12-12T02:03:41.149Z,98937.28
2022-12-12T02:06:19.776Z,98938.12
2022-12-12T02:08:50.325Z,98935.09
2022-12-12T02:11:18.180Z,98933.93
2022-12-12T02:13:46.021Z,98934.74
2022-12-12T02:16:40.330Z,98932.96
2022-12-12T02:19:11.111Z,98926.27
2022-12-12T02:21:48.026Z,98925.46
2022-12-12T02:40:21.168Z,98934.44
2022-12-12T02:43:09.798Z,98930.30
2022-12-12T02:45:39.595Z,98931.38
2022-12-12T02:48:52.229Z,98927.99
2022-12-12T02:51:21.620Z,98928.14
2022-12-12T02:53:49.257Z,98925.98
2022-12-12T02:56:44.802Z,98921.09
2022-12-12T02:59:21.972Z,98924.05
2022-12-12T03:02:30.829Z,98923.56
2022-12-12T03:05:38.537Z,98919.48
2022-12-12T03:08:40.199Z,98920.01
2022-12-12T03:11:12.772Z,98913.77
2022-12-12T03:13:43.523Z,98917.29
2022-12-12T03:16:28.283Z,98921.73
2022-12-12T03:19:20.868Z,98923.15
2022-12-12T03:22:08.488Z,98921.40
2022-12-12T03:25:08.635Z,98918.27
2022-12-12T03:27:48.791Z,98916.48
2022-12-12T03:30:18.093Z,98907.09
2022-12-12T03:32:52.583Z,98916.77
2022-12-12T03:35:28.545Z,98916.21
2022-12-12T03:38:07.277Z,98913.09
2022-12-12T03:40:34.861Z,98909.14
2022-12-12T03:43:10.389Z,98910.45
2022-12-12T03:46:12.748Z,98910.10
2022-12-12T03:48:45.653Z,98908.70
2022-12-12T03:51:23.362Z,98915.19
2022-12-12T03:54:00.414Z,98914.15
2022-12-12T03:56:37.462Z,98913.14
2022-12-12T03:59:16.477Z,98916.00
2022-12-12T04:01:50.294Z,98911.19
2022-12-12T04:04:28.390Z,98909.02
2022-12-12T04:07:07.346Z,98908.11
2022-12-12T04:09:53.683Z,98905.14
2022-12-12T04:12:44.305Z,98899.13
2022-12-12T04:15:47.763Z,98894.40
2022-12-12T04:18:55.825Z,98893.57
2022-12-12T04:22:00.391Z,98889.23
2022-12-12T04:25:00.870Z,98893.39
2022-12-12T04:27:40.983Z,98887.31
2022-12-12T04:30:12.393Z,98883.99
2022-12-12T04:32:52.613Z,98884.27
2022-12-12T04:35:29.410Z,98885.32
2022-12-12T04:38:01.324Z,98886.21
2022-12-12T04:40:54.980Z,98886.72
2022-12-12T04:43:28.155Z,98882.76
2022-12-12T04:46:08.901Z,98884.91
2022-12-12T04:48:50.732Z,98884.48
2022-12-12T04:51:26.703Z,98881.66
2022-12-12T04:54:14.576Z,98882.76
2022-12-12T04:56:46.317Z,98879.56
2022-12-12T04:59:14.064Z,98875.73
2022-12-12T05:01:54.693Z,98873.52
2022-12-12T05:04:29.248Z,98868.37
2022-12-12T05:07:04.550Z,98868.41
2022-12-12T05:09:32.236Z,98869.19
2022-12-12T05:11:59.930Z,98867.37
2022-12-12T05:14:29.736Z,98870.58
2022-12-12T05:17:01.024Z,98870.52
2022-12-12T05:19:28.774Z,98873.55
2022-12-12T05:21:56.430Z,98871.21
2022-12-12T05:24:24.122Z,98871.48
2022-12-12T05:26:51.821Z,98868.23
2022-12-12T05:29:19.468Z,98871.84
2022-12-12T05:31:47.123Z,98870.29
2022-12-12T05:34:14.790Z,98873.59
2022-12-12T05:36:42.568Z,98869.58
2022-12-12T05:39:10.259Z,98867.59
2022-12-12T05:41:38.356Z,98870.04
2022-12-12T05:44:06.161Z,98869.05
2022-12-12T05:46:33.879Z,98865.92
2022-12-12T05:49:01.598Z,98863.62
2022-12-12T05:51:29.240Z,98864.61
2022-12-12T05:53:56.969Z,98860.20
2022-12-12T05:56:24.604Z,98861.64
2022-12-12T05:58:52.217Z,98856.61
2022-12-12T06:01:19.845Z,98862.02
2022-12-12T06:03:47.672Z,98866.84
2022-12-12T06:06:15.426Z,98865.36
2022-12-12T06:08:43.256Z,98867.02
2022-12-12T06:11:11.022Z,98868.30
2022-12-12T06:13:38.823Z,98865.55
2022-12-12T06:16:11.876Z,98871.47
2022-12-12T06:18:39.573Z,98869.65
2022-12-12T06:21:10.029Z,98868.59
2022-12-12T06:23:41.894Z,98869.34
2022-12-12T06:26:12.144Z,98866.74
2022-12-12T06:28:40.824Z,98874.58
2022-12-12T06:31:11.861Z,98876.38
2022-12-12T06:33:41.828Z,98877.49
2022-12-12T06:36:16.627Z,98874.88
2022-12-12T06:38:44.609Z,98876.39
2022-12-12T06:41:14.383Z,98883.23
2022-12-12T06:43:42.908Z,98879.67
2022-12-12T06:46:16.652Z,98877.64
2022-12-12T06:48:45.351Z,98878.91
2022-12-12T06:51:33.426Z,98874.35
2022-12-12T06:54:01.151Z,98877.64
2022-12-12T06:56:29.180Z,98873.64
2022-12-12T06:58:58.762Z,98874.30
2022-12-12T07:01:26.503Z,98869.58
2022-12-12T07:03:54.294Z,98871.70
2022-12-12T07:06:23.294Z,98870.63
2022-12-12T07:08:52.082Z,98873.87
2022-12-12T07:11:22.934Z,98875.45
2022-12-12T07:13:51.176Z,98884.60
2022-12-12T07:16:19.798Z,98882.99
2022-12-12T07:18:48.421Z,98885.40
2022-12-12T07:21:19.141Z,98889.88
2022-12-12T07:23:47.424Z,98886.70
2022-12-12T07:26:18.612Z,98891.65
2022-12-12T07:28:46.478Z,98894.25
2022-12-12T07:31:16.939Z,98892.35
2022-12-12T07:33:45.293Z,98895.17
2022-12-12T07:36:14.610Z,98893.07
2022-12-12T07:38:43.210Z,98888.66
2022-12-12T07:41:13.640Z,98890.51
2022-12-12T07:43:44.737Z,98891.55
2022-12-12T07:46:18.741Z,98893.42
2022-12-12T07:48:46.750Z,98889.17
2022-12-12T07:51:15.187Z,98891.89
2022-12-12T07:53:43.323Z,98885.45
2022-12-12T07:56:13.337Z,98889.03
2022-12-12T07:58:41.491Z,98883.03
2022-12-12T08:01:21.362Z,98887.38
2022-12-12T08:03:49.533Z,98890.34
2022-12-12T08:06:17.887Z,98886.44
2022-12-12T08:08:46.773Z,98886.61
2022-12-12T08:11:16.526Z,98881.65
2022-12-12T08:13:44.260Z,98887.07
2022-12-12T08:16:21.717Z,98884.43
2022-12-12T08:18:49.843Z,98888.65
2022-12-12T08:21:24.816Z,98888.73
2022-12-12T08:23:58.137Z,98888.70
2022-12-12T08:26:27.909Z,98886.44
2022-12-12T08:28:56.710Z,98891.95
2022-12-12T08:31:25.817Z,98897.16
2022-12-12T08:33:54.652Z,98898.77
2022-12-12T08:36:26.727Z,98893.61
2022-12-12T08:38:54.402Z,98896.25
2022-12-12T08:41:23.501Z,98899.76
2022-12-12T08:43:51.682Z,98903.48
2022-12-12T08:46:21.145Z,98905.14
2022-12-12T08:48:49.719Z,98900.42
2022-12-12T08:51:18.666Z,98897.91
2022-12-12T08:53:48.181Z,98900.61
2022-12-12T08:56:17.141Z,98899.37
2022-12-12T08:58:45.441Z,98897.73
2022-12-12T09:01:21.991Z,98894.30
2022-12-12T09:03:51.786Z,98893.77
2022-12-12T09:06:20.801Z,98891.52
2022-12-12T09:08:48.891Z,98896.58
2022-12-12T09:11:17.401Z,98896.95
2022-12-12T09:13:45.782Z,98897.81
2022-12-12T09:16:13.608Z,98898.42
2022-12-12T09:18:48.086Z,98903.80
2022-12-12T09:21:17.771Z,98898.21
2022-12-12T09:23:45.456Z,98891.30
2022-12-12T09:26:13.607Z,98896.69
2022-12-12T09:28:41.445Z,98896.27
2022-12-12T09:31:11.036Z,98901.27
2022-12-12T09:33:39.969Z,98897.30
2022-12-12T09:36:08.817Z,98898.13
2022-12-12T09:38:36.695Z,98894.84
2022-12-12T09:41:13.763Z,98899.75
2022-12-12T09:44:00.152Z,98900.50
2022-12-12T09:46:47.536Z,98903.19
2022-12-12T09:49:28.988Z,98908.96
2022-12-12T09:51:57.829Z,98910.18
2022-12-12T09:54:27.387Z,98910.73
2022-12-12T09:57:16.001Z,98913.58
2022-12-12T09:59:55.830Z,98910.91
2022-12-12T10:02:57.646Z,98916.48
2022-12-12T10:05:51.207Z,98917.24
2022-12-12T10:08:45.087Z,98911.04
2022-12-12T10:11:44.547Z,98914.08
2022-12-12T10:14:14.390Z,98915.46
2022-12-12T10:16:42.967Z,98918.10
2022-12-12T10:19:20.564Z,98920.16
2022-12-12T10:21:51.980Z,98921.37
2022-12-12T10:24:22.275Z,98915.52
2022-12-12T10:26:50.753Z,98911.91
2022-12-12T10:29:20.507Z,98913.13
2022-12-12T10:32:00.675Z,98910.19
2022-12-12T10:34:57.849Z,98916.52
2022-12-12T10:37:43.793Z,98919.55
2022-12-12T10:40:39.322Z,98920.15
2022-12-12T10:43:42.916Z,98920.56
2022-12-12T10:46:19.459Z,98916.37
2022-12-12T10:48:48.890Z,98919.13
2022-12-12T10:51:20.297Z,98916.68
2022-12-12T10:53:48.169Z,98921.36
2022-12-12T10:56:23.436Z,98917.48
2022-12-12T10:58:57.597Z,98917.49
2022-12-12T11:02:00.509Z,98914.79
2022-12-12T11:04:20.041Z,98917.86
2022-12-12T11:06:52.509Z,98917.36
2022-12-12T11:09:23.553Z,98914.98
2022-12-12T11:12:03.739Z,98910.90
2022-12-12T11:14:53.013Z,98915.28
2022-12-12T11:17:22.799Z,98909.27
2022-12-12T11:19:52.154Z,98914.95
2022-12-12T11:22:20.274Z,98913.11
2022-12-12T11:24:49.644Z,98915.00
2022-12-12T11:27:40.490Z,98918.66
2022-12-12T11:30:37.903Z,98911.11
2022-12-12T11:33:08.844Z,98919.95
2022-12-12T11:35:45.666Z,98918.17
2022-12-12T11:38:19.995Z,98923.77
2022-12-12T11:40:59.605Z,98921.21
2022-12-12T11:43:30.519Z,98923.41
2022-12-12T11:46:04.327Z,98924.27
2022-12-12T11:48:55.448Z,98928.79
2022-12-12T11:51:39.709Z,98930.66
2022-12-12T11:54:14.828Z,98931.23
2022-12-12T11:57:02.171Z,98933.16
2022-12-12T11:59:39.967Z,98931.92
2022-12-12T12:02:29.482Z,98933.50
2022-12-12T12:05:32.105Z,98937.15
2022-12-12T12:08:15.172Z,98940.77
2022-12-12T12:10:48.641Z,98942.56
2022-12-12T12:13:16.527Z,98939.66
2022-12-12T12:16:00.122Z,98941.91
2022-12-12T12:18:56.265Z,98942.88
2022-12-12T12:21:36.219Z,98946.52
2022-12-12T12:24:22.573Z,98943.17
2022-12-12T12:27:00.911Z,98944.67
2022-12-12T12:29:37.363Z,98946.46
2022-12-12T12:32:04.992Z,98944.24
2022-12-12T12:34:42.709Z,98937.96
2022-12-12T12:37:30.935Z,98940.84
2022-12-12T12:40:17.170Z,98938.69
2022-12-12T12:43:11.534Z,98945.04
2022-12-12T12:45:53.132Z,98943.14
2022-12-12T12:48:34.738Z,98944.88
2022-12-12T12:51:25.559Z,98943.48
2022-12-12T12:53:59.922Z,98945.64
2022-12-12T12:56:36.722Z,98942.34
2022-12-12T12:59:17.234Z,98944.64
2022-12-12T13:01:52.578Z,98942.52
2022-12-12T13:04:22.885Z,98940.01
2022-12-12T13:07:12.108Z,98937.77
2022-12-12T13:09:51.552Z,98939.14
2022-12-12T13:12:40.289Z,98943.06
2022-12-12T13:15:19.659Z,98946.02
2022-12-12T13:17:56.614Z,98946.58
2022-12-12T13:20:26.281Z,98948.40
2022-12-12T13:23:00.097Z,98947.92
2022-12-12T13:25:54.797Z,98951.45
2022-12-12T13:28:51.604Z,98955.45
2022-12-12T13:31:39.803Z,98961.77
2022-12-12T13:34:13.327Z,98964.77
2022-12-12T13:36:45.684Z,98971.35
2022-12-12T13:39:33.170Z,98967.02
2022-12-12T13:42:03.511Z,98967.65
2022-12-12T13:44:44.845Z,98969.06
2022-12-12T13:47:22.051Z,98972.14
2022-12-12T13:49:57.518Z,98979.20
2022-12-12T13:52:30.132Z,98978.72
2022-12-12T13:55:13.461Z,98984.06
2022-12-12T13:57:59.013Z,98981.38
2022-12-12T14:00:34.488Z,98985.77
2022-12-12T14:03:11.655Z,98982.61
2022-12-12T14:05:52.319Z,98983.44
2022-12-12T14:08:25.588Z,98986.36
2022-12-12T14:10:57.627Z,98989.70
2022-12-12T14:13:30.617Z,98988.78
2022-12-12T14:15:58.340Z,98991.49
2022-12-12T14:18:40.681Z,98994.52
2022-12-12T14:21:14.492Z,98993.73
2022-12-12T14:23:51.208Z,98993.77
2022-12-12T14:26:28.496Z,98994.17
2022-12-12T14:29:17.816Z,98992.95
2022-12-12T14:31:58.940Z,98994.09
2022-12-12T14:38:35.669Z,98999.21
2022-12-12T14:41:10.258Z,99001.85
2022-12-12T14:43:48.571Z,98998.11
2022-12-12T14:46:42.321Z,99002.90
2022-12-12T14:49:16.049Z,99005.63
2022-12-12T14:51:50.779Z,99002.75
2022-12-12T14:54:21.885Z,99009.07
2022-12-12T15:00:21.017Z,99011.84
2022-12-12T15:02:55.398Z,99015.09
2022-12-12T15:05:24.506Z,99020.02
2022-12-12T15:07:59.623Z,99020.38
2022-12-12T15:10:30.516Z,99020.27
2022-12-12T15:12:58.160Z,99021.02
2022-12-12T15:15:29.337Z,99025.52
2022-12-12T15:18:00.435Z,99029.38
2022-12-12T15:20:30.735Z,99027.84
2022-12-12T15:23:01.640Z,99028.44
2022-12-12T15:25:36.213Z,99032.59
2022-12-12T15:28:03.935Z,99029.23
2022-12-12T15:30:33.348Z,99035.23
2022-12-12T15:33:02.141Z,99040.15
2022-12-12T15:35:29.768Z,99038.39
2022-12-12T15:38:00.487Z,99037.09
2022-12-12T15:40:35.918Z,99043.78
2022-12-12T15:43:11.560Z,99036.50
2022-12-12T15:45:47.216Z,99031.80
2022-12-12T15:48:17.213Z,99034.92
2022-12-12T15:50:45.797Z,99039.30
2022-12-12T15:53:26.678Z,99040.12
2022-12-12T15:56:11.987Z,99040.05
2022-12-12T15:58:45.484Z,99041.64
2022-12-12T16:01:21.452Z,99041.93
2022-12-12T16:03:55.527Z,99042.86
2022-12-12T16:06:26.223Z,99049.02
2022-12-12T16:08:59.500Z,99050.74
2022-12-12T16:11:38.188Z,99055.02
2022-12-12T16:14:42.395Z,99054.39
2022-12-12T16:17:25.255Z,99054.97
2022-12-12T16:19:57.503Z,99053.79
2022-12-12T16:22:41.669Z,99060.50
2022-12-12T16:25:15.750Z,99056.16
2022-12-12T16:27:44.415Z,99063.91
2022-12-12T16:30:14.925Z,99063.91
2022-12-12T16:32:43.407Z,99065.31
2022-12-12T16:35:17.104Z,99066.61
2022-12-12T16:37:45.650Z,99068.41
2022-12-12T16:40:16.043Z,99071.13
2022-12-12T16:42:47.522Z,99070.20
2022-12-12T16:45:15.210Z,99074.48
2022-12-12T16:47:42.935Z,99075.05
2022-12-12T16:50:14.424Z,99078.33
2022-12-12T16:52:42.294Z,99084.18
2022-12-12T16:55:30.693Z,99088.70
2022-12-12T16:57:58.323Z,99093.84
2022-12-12T17:00:25.918Z,99097.70
2022-12-12T17:02:53.587Z,99099.79
2022-12-12T17:05:24.955Z,99103.98
2022-12-12T17:07:53.720Z,99108.42
2022-12-12T17:10:24.535Z,99109.45
2022-12-12T17:12:54.113Z,99115.21
2022-12-12T17:15:26.346Z,99120.00
2022-12-12T17:17:55.075Z,99119.50
2022-12-12T17:20:23.690Z,99118.60
2022-12-12T17:22:55.104Z,99128.16
2022-12-12T17:25:23.301Z,99131.02
2022-12-12T17:27:51.869Z,99125.83
2022-12-12T17:30:20.750Z,99128.02
2022-12-12T17:35:35.593Z,99129.45
2022-12-12T17:38:03.838Z,99127.42
2022-12-12T17:40:31.659Z,99125.38
2022-12-12T17:42:59.892Z,99127.41
2022-12-12T17:45:27.528Z,99127.67
2022-12-12T17:47:57.567Z,99138.23
2022-12-12T17:50:25.199Z,99139.09
2022-12-12T17:52:56.043Z,99138.57
2022-12-12T17:55:55.341Z,99142.73
2022-12-12T17:58:11.504Z,99144.10
2022-12-12T18:00:40.382Z,99151.10
2022-12-12T18:03:10.227Z,99149.65
2022-12-12T18:05:37.782Z,99151.88
2022-12-12T18:08:05.534Z,99149.86
2022-12-12T18:10:33.470Z,99156.11
2022-12-12T18:13:02.406Z,99153.90
2022-12-12T18:15:30.184Z,99155.70
2022-12-12T18:17:57.912Z,99156.83
2022-12-12T18:20:31.026Z,99157.20
2022-12-12T18:22:59.140Z,99160.17
2022-12-12T18:25:26.856Z,99164.20
2022-12-12T18:27:56.071Z,99164.85
2022-12-12T18:30:23.686Z,99171.41
2022-12-12T18:32:51.260Z,99169.64
2022-12-12T18:35:19.654Z,99169.90
2022-12-12T18:37:48.195Z,99172.25
2022-12-12T18:40:16.262Z,99172.39
2022-12-12T18:42:44.190Z,99178.80
2022-12-12T18:45:12.436Z,99181.58
2022-12-12T18:47:40.074Z,99188.63
2022-12-12T18:50:08.467Z,99188.27
2022-12-12T18:52:36.131Z,99191.63
2022-12-12T18:55:04.666Z,99193.20
2022-12-12T18:57:32.750Z,99195.11
2022-12-12T19:00:00.736Z,99199.73
2022-12-12T19:12:56.266Z,99214.75
2022-12-12T19:15:23.884Z,99216.40
2022-12-12T19:17:51.602Z,99215.70
2022-12-12T19:20:19.370Z,99217.00
2022-12-12T19:22:47.268Z,99218.16
2022-12-12T19:25:17.303Z,99225.69
2022-12-12T19:27:45.207Z,99228.66
2022-12-12T19:30:14.545Z,99230.36
2022-12-12T19:32:43.114Z,99231.11
2022-12-12T19:35:11.036Z,99238.38
2022-12-12T19:37:38.682Z,99238.88
2022-12-12T19:40:09.808Z,99239.71
2022-12-12T19:42:38.396Z,99240.42
2022-12-12T19:45:08.563Z,99248.85
2022-12-12T19:47:36.267Z,99241.26
2022-12-12T19:50:04.511Z,99244.77
2022-12-12T19:52:32.190Z,99251.38
2022-12-12T19:54:59.831Z,99252.17
2022-12-12T19:57:30.672Z,99261.90
2022-12-12T19:59:58.502Z,99264.14
2022-12-12T20:02:26.269Z,99268.64
2022-12-12T20:04:54.075Z,99269.55
2022-12-12T20:07:21.837Z,99273.25
2022-12-12T20:09:49.485Z,99267.14
2022-12-12T20:12:17.416Z,99272.39
2022-12-12T20:14:45.317Z,99273.59
2022-12-12T20:17:13.422Z,99276.65
2022-12-12T20:19:44.180Z,99282.64
2022-12-12T20:22:12.052Z,99285.61
2022-12-12T20:24:40.811Z,99291.30
2022-12-12T20:27:09.228Z,99291.91
2022-12-12T20:29:38.667Z,99290.75
2022-12-12T20:32:06.323Z,99292.71
2022-12-12T20:34:34.114Z,99300.05
2022-12-12T20:37:01.877Z,99297.20
2022-12-12T20:39:29.844Z,99297.61
2022-12-12T20:41:57.560Z,99297.26
2022-12-12T20:44:25.956Z,99297.97
2022-12-12T20:46:53.795Z,99296.95
2022-12-12T20:49:22.457Z,99299.90
2022-12-12T20:51:58.612Z,99302.65
2022-12-12T20:54:28.575Z,99308.38
2022-12-12T20:56:58.227Z,99309.38
2022-12-12T20:59:26.648Z,99317.95
2022-12-12T21:01:57.412Z,99323.59
2022-12-12T21:04:25.946Z,99330.27
2022-12-12T21:06:53.781Z,99333.02
2022-12-12T21:09:25.900Z,99333.77
2022-12-12T21:11:56.883Z,99338.36
2022-12-12T21:14:28.347Z,99341.94
2022-12-12T21:16:56.286Z,99345.59
2022-12-12T21:19:24.037Z,99346.10
2022-12-12T21:21:52.894Z,99349.91
2022-12-12T21:24:21.254Z,99345.11
2022-12-12T21:26:49.107Z,99345.80
2022-12-12T21:29:17.429Z,99347.55
2022-12-12T21:31:51.004Z,99344.86
2022-12-12T21:34:22.412Z,99346.29
2022-12-12T21:36:52.329Z,99353.61
2022-12-12T21:39:21.856Z,99359.39
2022-12-12T21:41:49.458Z,99359.33
2022-12-12T21:44:17.367Z,99359.25
2022-12-12T21:46:45.135Z,99364.02
2022-12-12T21:49:30.604Z,99368.81
2022-12-12T21:52:03.838Z,99368.95
2022-12-12T21:54:32.583Z,99372.44
2022-12-12T21:57:03.841Z,99376.61
2022-12-12T21:59:31.712Z,99377.18
2022-12-12T22:02:01.058Z,99374.22
2022-12-12T22:04:29.114Z,99378.56
2022-12-12T22:06:57.713Z,99381.19
2022-12-12T22:09:26.892Z,99383.15
2022-12-12T22:12:03.434Z,99379.95
2022-12-12T22:14:33.881Z,99380.64
2022-12-12T22:17:02.921Z,99383.21
2022-12-12T22:19:30.828Z,99385.45
2022-12-12T22:21:58.682Z,99387.31
2022-12-12T22:24:26.381Z,99386.14
2022-12-12T22:26:54.191Z,99388.10
2022-12-12T22:29:21.959Z,99393.70
2022-12-12T22:31:50.121Z,99394.77
2022-12-12T22:34:23.848Z,99395.08
2022-12-12T22:36:52.821Z,99396.44
2022-12-12T22:39:23.736Z,99394.29
2022-12-12T22:41:51.957Z,99396.27
2022-12-12T22:44:21.491Z,99396.86
2022-12-12T22:46:50.816Z,99400.92
2022-12-12T22:49:22.326Z,99404.75
2022-12-12T22:51:49.997Z,99407.63
2022-12-12T22:54:18.440Z,99408.13
2022-12-12T22:56:46.104Z,99412.11
2022-12-12T22:59:14.401Z,99415.25
2022-12-12T23:01:42.783Z,99418.45
2022-12-12T23:04:14.454Z,99427.33
2022-12-12T23:06:42.769Z,99427.44
2022-12-12T23:09:16.762Z,99433.75
2022-12-12T23:11:45.434Z,99434.77
2022-12-12T23:14:16.199Z,99437.55
2022-12-12T23:16:44.624Z,99434.16
2022-12-12T23:19:16.703Z,99438.18
2022-12-12T23:21:44.785Z,99440.20
2022-12-12T23:24:12.971Z,99442.95
2022-12-12T23:26:41.338Z,99444.51
2022-12-12T23:29:12.643Z,99444.70
2022-12-12T23:31:40.628Z,99449.29
2022-12-12T23:34:14.794Z,99446.96
2022-12-12T23:36:44.000Z,99445.02
2022-12-12T23:39:12.943Z,99448.41
2022-12-12T23:41:41.512Z,99453.45
2022-12-12T23:44:12.404Z,99457.67
2022-12-12T23:46:40.587Z,99464.06
2022-12-12T23:49:14.950Z,99470.33
2022-12-12T23:51:48.127Z,99474.95
2022-12-12T23:54:19.032Z,99469.05
2022-12-12T23:56:48.426Z,99471.52
2022-12-12T23:59:18.272Z,99471.30
